sensor_id;sensor_type;location;lat;lon;timestamp;P1;durP1;ratioP1;P2;durP2;ratioP2
35276;SDS011;21401;50.878;8.050;2022-07-15T00:00:33;8.45;;;3.03;;
35276;SDS011;21401;50.878;8.050;2022-07-15T00:03:01;4.10;;;1.80;;
35276;SDS011;21401;50.878;8.050;2022-07-15T00:05:27;3.20;;;1.55;;
35276;SDS011;21401;50.878;8.050;2022-07-15T00:07:57;5.70;;;1.77;;
35276;SDS011;21401;50.878;8.050;2022-07-15T00:10:26;3.65;;;2.03;;
35276;SDS011;21401;50.878;8.050;2022-07-15T00:12:59;4.65;;;2.20;;
35276;SDS011;21401;50.878;8.050;2022-07-15T00:15:27;8.45;;;2.58;;
35276;SDS011;21401;50.878;8.050;2022-07-15T00:17:55;5.32;;;2.20;;
35276;SDS011;21401;50.878;8.050;2022-07-15T00:20:25;7.78;;;2.53;;
35276;SDS011;21401;50.878;8.050;2022-07-15T00:22:51;4.05;;;1.98;;
35276;SDS011;21401;50.878;8.050;2022-07-15T00:25:17;5.40;;;1.98;;
35276;SDS011;21401;50.878;8.050;2022-07-15T00:27:51;6.10;;;1.92;;
35276;SDS011;21401;50.878;8.050;2022-07-15T00:30:32;6.20;;;2.25;;
35276;SDS011;21401;50.878;8.050;2022-07-15T00:33:02;7.18;;;2.20;;
35276;SDS011;21401;50.878;8.050;2022-07-15T00:35:29;6.07;;;2.47;;
35276;SDS011;21401;50.878;8.050;2022-07-15T00:37:56;3.85;;;1.92;;
35276;SDS011;21401;50.878;8.050;2022-07-15T00:40:24;5.63;;;2.22;;
35276;SDS011;21401;50.878;8.050;2022-07-15T00:42:50;5.50;;;1.95;;
35276;SDS011;21401;50.878;8.050;2022-07-15T00:45:16;5.05;;;2.83;;
35276;SDS011;21401;50.878;8.050;2022-07-15T00:47:44;5.97;;;2.70;;
35276;SDS011;21401;50.878;8.050;2022-07-15T00:50:12;4.55;;;2.72;;
35276;SDS011;21401;50.878;8.050;2022-07-15T00:52:39;6.05;;;2.40;;
35276;SDS011;21401;50.878;8.050;2022-07-15T00:55:06;6.05;;;2.47;;
35276;SDS011;21401;50.878;8.050;2022-07-15T00:57:42;5.25;;;2.33;;
35276;SDS011;21401;50.878;8.050;2022-07-15T01:00:09;4.43;;;2.47;;
35276;SDS011;21401;50.878;8.050;2022-07-15T01:02:39;7.07;;;2.00;;
35276;SDS011;21401;50.878;8.050;2022-07-15T01:05:08;4.20;;;2.15;;
35276;SDS011;21401;50.878;8.050;2022-07-15T01:07:37;3.10;;;2.00;;
35276;SDS011;21401;50.878;8.050;2022-07-15T01:10:04;4.50;;;2.47;;
35276;SDS011;21401;50.878;8.050;2022-07-15T01:12:31;6.10;;;2.20;;
35276;SDS011;21401;50.878;8.050;2022-07-15T01:14:57;4.07;;;2.08;;
35276;SDS011;21401;50.878;8.050;2022-07-15T01:17:24;4.45;;;2.28;;
35276;SDS011;21401;50.878;8.050;2022-07-15T01:19:50;4.90;;;1.90;;
35276;SDS011;21401;50.878;8.050;2022-07-15T01:22:15;5.10;;;1.98;;
35276;SDS011;21401;50.878;8.050;2022-07-15T01:24:41;7.50;;;2.58;;
35276;SDS011;21401;50.878;8.050;2022-07-15T01:27:09;5.13;;;2.50;;
35276;SDS011;21401;50.878;8.050;2022-07-15T01:29:34;5.93;;;2.20;;
35276;SDS011;21401;50.878;8.050;2022-07-15T01:32:00;4.47;;;2.00;;
35276;SDS011;21401;50.878;8.050;2022-07-15T01:34:28;3.97;;;2.30;;
35276;SDS011;21401;50.878;8.050;2022-07-15T01:36:53;5.88;;;2.10;;
35276;SDS011;21401;50.878;8.050;2022-07-15T01:39:19;5.90;;;2.75;;
35276;SDS011;21401;50.878;8.050;2022-07-15T01:41:44;4.43;;;2.10;;
35276;SDS011;21401;50.878;8.050;2022-07-15T01:44:11;5.50;;;2.50;;
35276;SDS011;21401;50.878;8.050;2022-07-15T01:46:39;7.47;;;2.10;;
35276;SDS011;21401;50.878;8.050;2022-07-15T01:49:04;8.32;;;2.45;;
35276;SDS011;21401;50.878;8.050;2022-07-15T01:51:51;8.55;;;2.67;;
35276;SDS011;21401;50.878;8.050;2022-07-15T01:54:21;6.25;;;2.45;;
35276;SDS011;21401;50.878;8.050;2022-07-15T01:56:49;6.10;;;2.47;;
35276;SDS011;21401;50.878;8.050;2022-07-15T01:59:19;3.97;;;2.00;;
35276;SDS011;21401;50.878;8.050;2022-07-15T02:01:49;3.13;;;2.40;;
35276;SDS011;21401;50.878;8.050;2022-07-15T02:04:16;3.38;;;2.70;;
35276;SDS011;21401;50.878;8.050;2022-07-15T02:06:42;7.00;;;2.42;;
35276;SDS011;21401;50.878;8.050;2022-07-15T02:09:08;3.40;;;2.38;;
35276;SDS011;21401;50.878;8.050;2022-07-15T02:11:33;5.00;;;2.38;;
35276;SDS011;21401;50.878;8.050;2022-07-15T02:14:02;5.70;;;2.10;;
35276;SDS011;21401;50.878;8.050;2022-07-15T02:16:29;4.75;;;2.53;;
35276;SDS011;21401;50.878;8.050;2022-07-15T02:18:55;7.70;;;2.97;;
35276;SDS011;21401;50.878;8.050;2022-07-15T02:21:21;4.13;;;2.58;;
35276;SDS011;21401;50.878;8.050;2022-07-15T02:23:49;4.35;;;2.45;;
35276;SDS011;21401;50.878;8.050;2022-07-15T02:26:15;6.55;;;2.65;;
35276;SDS011;21401;50.878;8.050;2022-07-15T02:28:43;7.68;;;2.83;;
35276;SDS011;21401;50.878;8.050;2022-07-15T02:31:11;6.55;;;2.97;;
35276;SDS011;21401;50.878;8.050;2022-07-15T02:33:37;8.02;;;4.18;;
35276;SDS011;21401;50.878;8.050;2022-07-15T02:36:03;4.38;;;3.10;;
35276;SDS011;21401;50.878;8.050;2022-07-15T02:38:29;5.22;;;2.70;;
35276;SDS011;21401;50.878;8.050;2022-07-15T02:40:55;6.00;;;2.50;;
35276;SDS011;21401;50.878;8.050;2022-07-15T02:43:25;5.38;;;2.45;;
35276;SDS011;21401;50.878;8.050;2022-07-15T02:45:51;6.60;;;2.72;;
35276;SDS011;21401;50.878;8.050;2022-07-15T02:48:16;5.22;;;2.28;;
35276;SDS011;21401;50.878;8.050;2022-07-15T02:50:42;8.23;;;2.83;;
35276;SDS011;21401;50.878;8.050;2022-07-15T02:53:08;4.90;;;2.88;;
35276;SDS011;21401;50.878;8.050;2022-07-15T02:55:36;3.42;;;2.15;;
35276;SDS011;21401;50.878;8.050;2022-07-15T02:58:04;4.68;;;2.40;;
35276;SDS011;21401;50.878;8.050;2022-07-15T03:00:30;7.43;;;3.15;;
35276;SDS011;21401;50.878;8.050;2022-07-15T03:02:57;4.72;;;2.20;;
35276;SDS011;21401;50.878;8.050;2022-07-15T03:05:25;4.57;;;2.33;;
35276;SDS011;21401;50.878;8.050;2022-07-15T03:07:50;3.47;;;2.40;;
35276;SDS011;21401;50.878;8.050;2022-07-15T03:10:16;7.78;;;2.35;;
35276;SDS011;21401;50.878;8.050;2022-07-15T03:12:42;9.02;;;2.42;;
35276;SDS011;21401;50.878;8.050;2022-07-15T03:15:08;6.15;;;3.47;;
35276;SDS011;21401;50.878;8.050;2022-07-15T03:17:35;10.00;;;3.80;;
35276;SDS011;21401;50.878;8.050;2022-07-15T03:20:00;5.93;;;2.58;;
35276;SDS011;21401;50.878;8.050;2022-07-15T03:22:28;7.10;;;3.08;;
35276;SDS011;21401;50.878;8.050;2022-07-15T03:24:56;7.03;;;2.97;;
35276;SDS011;21401;50.878;8.050;2022-07-15T03:27:22;5.43;;;2.72;;
35276;SDS011;21401;50.878;8.050;2022-07-15T03:29:48;4.00;;;3.00;;
35276;SDS011;21401;50.878;8.050;2022-07-15T03:32:14;8.40;;;2.88;;
35276;SDS011;21401;50.878;8.050;2022-07-15T03:34:41;3.88;;;3.00;;
35276;SDS011;21401;50.878;8.050;2022-07-15T03:37:09;4.32;;;2.88;;
35276;SDS011;21401;50.878;8.050;2022-07-15T03:39:36;5.88;;;2.75;;
35276;SDS011;21401;50.878;8.050;2022-07-15T03:42:01;5.15;;;3.25;;
35276;SDS011;21401;50.878;8.050;2022-07-15T03:44:29;6.25;;;2.30;;
35276;SDS011;21401;50.878;8.050;2022-07-15T03:46:57;5.20;;;2.60;;
35276;SDS011;21401;50.878;8.050;2022-07-15T03:49:28;5.15;;;2.85;;
35276;SDS011;21401;50.878;8.050;2022-07-15T03:51:54;6.50;;;4.63;;
35276;SDS011;21401;50.878;8.050;2022-07-15T03:54:22;6.05;;;3.65;;
35276;SDS011;21401;50.878;8.050;2022-07-15T03:56:47;8.18;;;3.97;;
35276;SDS011;21401;50.878;8.050;2022-07-15T03:59:14;7.07;;;3.28;;
35276;SDS011;21401;50.878;8.050;2022-07-15T04:01:41;6.10;;;3.15;;
35276;SDS011;21401;50.878;8.050;2022-07-15T04:04:06;8.35;;;3.45;;
35276;SDS011;21401;50.878;8.050;2022-07-15T04:06:34;8.65;;;3.47;;
35276;SDS011;21401;50.878;8.050;2022-07-15T04:09:01;9.40;;;3.75;;
35276;SDS011;21401;50.878;8.050;2022-07-15T04:11:32;5.63;;;3.38;;
35276;SDS011;21401;50.878;8.050;2022-07-15T04:13:57;5.57;;;2.90;;
35276;SDS011;21401;50.878;8.050;2022-07-15T04:16:23;5.90;;;3.00;;
35276;SDS011;21401;50.878;8.050;2022-07-15T04:18:49;6.82;;;2.90;;
35276;SDS011;21401;50.878;8.050;2022-07-15T04:21:17;4.57;;;2.95;;
35276;SDS011;21401;50.878;8.050;2022-07-15T04:23:42;7.25;;;3.22;;
35276;SDS011;21401;50.878;8.050;2022-07-15T04:26:11;5.90;;;3.15;;
35276;SDS011;21401;50.878;8.050;2022-07-15T04:28:36;5.63;;;3.35;;
35276;SDS011;21401;50.878;8.050;2022-07-15T04:31:02;8.68;;;3.13;;
35276;SDS011;21401;50.878;8.050;2022-07-15T04:33:30;5.65;;;2.80;;
35276;SDS011;21401;50.878;8.050;2022-07-15T04:35:56;7.10;;;3.22;;
35276;SDS011;21401;50.878;8.050;2022-07-15T04:38:21;4.95;;;3.10;;
35276;SDS011;21401;50.878;8.050;2022-07-15T04:40:47;5.78;;;2.72;;
35276;SDS011;21401;50.878;8.050;2022-07-15T04:43:12;5.57;;;3.28;;
35276;SDS011;21401;50.878;8.050;2022-07-15T04:45:41;9.07;;;3.40;;
35276;SDS011;21401;50.878;8.050;2022-07-15T04:48:08;4.25;;;3.00;;
35276;SDS011;21401;50.878;8.050;2022-07-15T04:50:55;4.53;;;2.88;;
35276;SDS011;21401;50.878;8.050;2022-07-15T04:53:24;7.45;;;2.88;;
35276;SDS011;21401;50.878;8.050;2022-07-15T04:55:49;6.25;;;2.65;;
35276;SDS011;21401;50.878;8.050;2022-07-15T04:58:17;5.40;;;2.80;;
35276;SDS011;21401;50.878;8.050;2022-07-15T05:00:46;5.22;;;3.05;;
35276;SDS011;21401;50.878;8.050;2022-07-15T05:03:11;5.10;;;2.83;;
35276;SDS011;21401;50.878;8.050;2022-07-15T05:05:40;4.03;;;2.50;;
35276;SDS011;21401;50.878;8.050;2022-07-15T05:08:06;7.25;;;3.35;;
35276;SDS011;21401;50.878;8.050;2022-07-15T05:10:35;4.47;;;2.60;;
35276;SDS011;21401;50.878;8.050;2022-07-15T05:13:03;7.82;;;3.00;;
35276;SDS011;21401;50.878;8.050;2022-07-15T05:15:29;12.20;;;3.25;;
35276;SDS011;21401;50.878;8.050;2022-07-15T05:17:59;6.25;;;3.08;;
35276;SDS011;21401;50.878;8.050;2022-07-15T05:20:29;4.10;;;2.65;;
35276;SDS011;21401;50.878;8.050;2022-07-15T05:22:57;5.25;;;2.70;;
35276;SDS011;21401;50.878;8.050;2022-07-15T05:25:24;6.10;;;2.90;;
35276;SDS011;21401;50.878;8.050;2022-07-15T05:27:52;7.90;;;3.60;;
35276;SDS011;21401;50.878;8.050;2022-07-15T05:30:21;12.38;;;4.22;;
35276;SDS011;21401;50.878;8.050;2022-07-15T05:32:47;7.68;;;3.35;;
35276;SDS011;21401;50.878;8.050;2022-07-15T05:35:17;8.63;;;3.97;;
35276;SDS011;21401;50.878;8.050;2022-07-15T05:37:43;8.15;;;3.83;;
35276;SDS011;21401;50.878;8.050;2022-07-15T05:40:11;9.68;;;4.43;;
35276;SDS011;21401;50.878;8.050;2022-07-15T05:42:40;8.43;;;4.35;;
35276;SDS011;21401;50.878;8.050;2022-07-15T05:45:08;9.02;;;5.05;;
35276;SDS011;21401;50.878;8.050;2022-07-15T05:47:34;5.70;;;3.45;;
35276;SDS011;21401;50.878;8.050;2022-07-15T05:50:00;9.55;;;3.55;;
35276;SDS011;21401;50.878;8.050;2022-07-15T05:52:28;7.72;;;3.67;;
35276;SDS011;21401;50.878;8.050;2022-07-15T05:54:53;11.73;;;3.67;;
35276;SDS011;21401;50.878;8.050;2022-07-15T05:57:22;10.57;;;4.20;;
35276;SDS011;21401;50.878;8.050;2022-07-15T05:59:47;9.70;;;4.90;;
35276;SDS011;21401;50.878;8.050;2022-07-15T06:02:13;12.38;;;4.03;;
35276;SDS011;21401;50.878;8.050;2022-07-15T06:04:39;9.70;;;4.57;;
35276;SDS011;21401;50.878;8.050;2022-07-15T06:07:05;7.78;;;4.22;;
35276;SDS011;21401;50.878;8.050;2022-07-15T06:09:31;11.68;;;5.07;;
35276;SDS011;21401;50.878;8.050;2022-07-15T06:11:59;10.80;;;5.30;;
35276;SDS011;21401;50.878;8.050;2022-07-15T06:14:27;12.98;;;5.53;;
35276;SDS011;21401;50.878;8.050;2022-07-15T06:16:52;9.38;;;4.63;;
35276;SDS011;21401;50.878;8.050;2022-07-15T06:19:20;12.38;;;5.00;;
35276;SDS011;21401;50.878;8.050;2022-07-15T06:21:50;9.68;;;5.40;;
35276;SDS011;21401;50.878;8.050;2022-07-15T06:24:18;13.20;;;4.45;;
35276;SDS011;21401;50.878;8.050;2022-07-15T06:26:46;12.73;;;4.90;;
35276;SDS011;21401;50.878;8.050;2022-07-15T06:29:12;18.02;;;5.40;;
35276;SDS011;21401;50.878;8.050;2022-07-15T06:31:37;11.80;;;4.97;;
35276;SDS011;21401;50.878;8.050;2022-07-15T06:34:03;16.70;;;5.40;;
35276;SDS011;21401;50.878;8.050;2022-07-15T06:36:34;10.60;;;4.65;;
35276;SDS011;21401;50.878;8.050;2022-07-15T06:38:59;9.25;;;4.68;;
35276;SDS011;21401;50.878;8.050;2022-07-15T06:41:30;13.45;;;4.47;;
35276;SDS011;21401;50.878;8.050;2022-07-15T06:43:56;16.33;;;3.95;;
35276;SDS011;21401;50.878;8.050;2022-07-15T06:46:25;8.02;;;3.90;;
35276;SDS011;21401;50.878;8.050;2022-07-15T06:48:50;8.48;;;3.05;;
35276;SDS011;21401;50.878;8.050;2022-07-15T06:51:16;14.90;;;4.60;;
35276;SDS011;21401;50.878;8.050;2022-07-15T06:53:42;10.60;;;3.60;;
35276;SDS011;21401;50.878;8.050;2022-07-15T06:56:10;7.00;;;3.65;;
35276;SDS011;21401;50.878;8.050;2022-07-15T06:58:37;9.63;;;3.83;;
35276;SDS011;21401;50.878;8.050;2022-07-15T07:01:05;8.75;;;3.55;;
35276;SDS011;21401;50.878;8.050;2022-07-15T07:03:30;11.20;;;3.42;;
35276;SDS011;21401;50.878;8.050;2022-07-15T07:05:58;9.73;;;3.30;;
35276;SDS011;21401;50.878;8.050;2022-07-15T07:08:24;8.98;;;3.33;;
35276;SDS011;21401;50.878;8.050;2022-07-15T07:10:52;8.38;;;3.38;;
35276;SDS011;21401;50.878;8.050;2022-07-15T07:13:18;14.60;;;3.60;;
35276;SDS011;21401;50.878;8.050;2022-07-15T07:15:48;8.75;;;2.88;;
35276;SDS011;21401;50.878;8.050;2022-07-15T07:18:14;12.15;;;3.15;;
35276;SDS011;21401;50.878;8.050;2022-07-15T07:20:42;13.43;;;3.60;;
35276;SDS011;21401;50.878;8.050;2022-07-15T07:23:10;6.40;;;3.10;;
35276;SDS011;21401;50.878;8.050;2022-07-15T07:25:40;12.00;;;3.47;;
35276;SDS011;21401;50.878;8.050;2022-07-15T07:28:06;10.30;;;2.90;;
35276;SDS011;21401;50.878;8.050;2022-07-15T07:30:32;8.27;;;3.53;;
35276;SDS011;21401;50.878;8.050;2022-07-15T07:33:02;8.70;;;3.17;;
35276;SDS011;21401;50.878;8.050;2022-07-15T07:35:29;9.50;;;3.05;;
35276;SDS011;21401;50.878;8.050;2022-07-15T07:37:55;9.73;;;3.28;;
35276;SDS011;21401;50.878;8.050;2022-07-15T07:40:23;15.18;;;4.25;;
35276;SDS011;21401;50.878;8.050;2022-07-15T07:42:48;9.50;;;2.42;;
35276;SDS011;21401;50.878;8.050;2022-07-15T07:45:14;10.90;;;3.42;;
35276;SDS011;21401;50.878;8.050;2022-07-15T07:47:40;11.10;;;3.03;;
35276;SDS011;21401;50.878;8.050;2022-07-15T07:50:07;6.38;;;2.38;;
35276;SDS011;21401;50.878;8.050;2022-07-15T07:52:33;7.45;;;2.08;;
35276;SDS011;21401;50.878;8.050;2022-07-15T07:54:59;5.18;;;1.52;;
35276;SDS011;21401;50.878;8.050;2022-07-15T07:57:24;7.78;;;2.13;;
35276;SDS011;21401;50.878;8.050;2022-07-15T07:59:52;9.27;;;1.65;;
35276;SDS011;21401;50.878;8.050;2022-07-15T08:02:18;12.50;;;1.60;;
35276;SDS011;21401;50.878;8.050;2022-07-15T08:04:44;6.72;;;1.40;;
35276;SDS011;21401;50.878;8.050;2022-07-15T08:07:12;5.80;;;1.33;;
35276;SDS011;21401;50.878;8.050;2022-07-15T08:09:37;9.02;;;1.42;;
35276;SDS011;21401;50.878;8.050;2022-07-15T08:12:03;6.75;;;1.60;;
35276;SDS011;21401;50.878;8.050;2022-07-15T08:14:28;5.38;;;1.20;;
35276;SDS011;21401;50.878;8.050;2022-07-15T08:16:57;3.90;;;1.50;;
35276;SDS011;21401;50.878;8.050;2022-07-15T08:19:22;3.95;;;1.08;;
35276;SDS011;21401;50.878;8.050;2022-07-15T08:21:48;5.05;;;1.65;;
35276;SDS011;21401;50.878;8.050;2022-07-15T08:24:14;3.70;;;1.17;;
35276;SDS011;21401;50.878;8.050;2022-07-15T08:26:39;3.53;;;0.90;;
35276;SDS011;21401;50.878;8.050;2022-07-15T08:29:05;2.88;;;1.10;;
35276;SDS011;21401;50.878;8.050;2022-07-15T08:31:31;3.63;;;1.13;;
35276;SDS011;21401;50.878;8.050;2022-07-15T08:34:02;3.45;;;0.85;;
35276;SDS011;21401;50.878;8.050;2022-07-15T08:36:29;3.10;;;0.90;;
35276;SDS011;21401;50.878;8.050;2022-07-15T08:38:55;4.70;;;0.90;;
35276;SDS011;21401;50.878;8.050;2022-07-15T08:41:25;4.50;;;1.30;;
35276;SDS011;21401;50.878;8.050;2022-07-15T08:43:51;3.17;;;1.30;;
35276;SDS011;21401;50.878;8.050;2022-07-15T08:46:19;4.68;;;0.80;;
35276;SDS011;21401;50.878;8.050;2022-07-15T08:48:49;5.40;;;1.58;;
35276;SDS011;21401;50.878;8.050;2022-07-15T08:51:18;5.60;;;1.85;;
35276;SDS011;21401;50.878;8.050;2022-07-15T08:53:49;3.78;;;1.30;;
35276;SDS011;21401;50.878;8.050;2022-07-15T08:56:19;4.20;;;1.30;;
35276;SDS011;21401;50.878;8.050;2022-07-15T08:58:47;4.93;;;1.52;;
35276;SDS011;21401;50.878;8.050;2022-07-15T09:01:13;2.90;;;1.40;;
35276;SDS011;21401;50.878;8.050;2022-07-15T09:03:38;4.28;;;1.65;;
35276;SDS011;21401;50.878;8.050;2022-07-15T09:06:04;3.45;;;1.20;;
35276;SDS011;21401;50.878;8.050;2022-07-15T09:08:30;6.57;;;2.28;;
35276;SDS011;21401;50.878;8.050;2022-07-15T09:10:57;4.97;;;1.50;;
35276;SDS011;21401;50.878;8.050;2022-07-15T09:13:25;4.68;;;1.98;;
35276;SDS011;21401;50.878;8.050;2022-07-15T09:18:34;2.03;;;0.90;;
35276;SDS011;21401;50.878;8.050;2022-07-15T09:23:39;4.45;;;1.20;;
35276;SDS011;21401;50.878;8.050;2022-07-15T09:28:48;2.15;;;1.23;;
35276;SDS011;21401;50.878;8.050;2022-07-15T09:31:37;5.57;;;1.55;;
35276;SDS011;21401;50.878;8.050;2022-07-15T09:34:24;4.07;;;1.20;;
35276;SDS011;21401;50.878;8.050;2022-07-15T09:36:53;2.33;;;1.33;;
35276;SDS011;21401;50.878;8.050;2022-07-15T09:39:20;5.35;;;1.45;;
35276;SDS011;21401;50.878;8.050;2022-07-15T09:41:49;4.40;;;1.30;;
35276;SDS011;21401;50.878;8.050;2022-07-15T09:51:51;2.75;;;1.05;;
35276;SDS011;21401;50.878;8.050;2022-07-15T09:54:21;1.75;;;0.80;;
35276;SDS011;21401;50.878;8.050;2022-07-15T09:56:51;4.30;;;1.50;;
35276;SDS011;21401;50.878;8.050;2022-07-15T09:59:17;4.35;;;1.25;;
35276;SDS011;21401;50.878;8.050;2022-07-15T10:01:45;2.83;;;1.52;;
35276;SDS011;21401;50.878;8.050;2022-07-15T10:04:18;4.75;;;1.30;;
35276;SDS011;21401;50.878;8.050;2022-07-15T10:06:53;3.90;;;1.08;;
35276;SDS011;21401;50.878;8.050;2022-07-15T10:09:21;3.78;;;1.50;;
35276;SDS011;21401;50.878;8.050;2022-07-15T10:11:52;9.48;;;2.78;;
35276;SDS011;21401;50.878;8.050;2022-07-15T10:27:58;2.67;;;0.77;;
35276;SDS011;21401;50.878;8.050;2022-07-15T10:30:32;5.28;;;1.80;;
35276;SDS011;21401;50.878;8.050;2022-07-15T10:33:07;5.05;;;1.52;;
35276;SDS011;21401;50.878;8.050;2022-07-15T10:43:40;2.08;;;0.90;;
35276;SDS011;21401;50.878;8.050;2022-07-15T10:48:40;5.13;;;1.02;;
35276;SDS011;21401;50.878;8.050;2022-07-15T10:51:06;3.28;;;1.08;;
35276;SDS011;21401;50.878;8.050;2022-07-15T10:53:32;3.88;;;1.00;;
35276;SDS011;21401;50.878;8.050;2022-07-15T11:04:27;2.95;;;0.90;;
35276;SDS011;21401;50.878;8.050;2022-07-15T11:15:16;5.40;;;1.00;;
35276;SDS011;21401;50.878;8.050;2022-07-15T11:17:44;4.00;;;0.90;;
35276;SDS011;21401;50.878;8.050;2022-07-15T11:20:14;3.92;;;1.08;;
35276;SDS011;21401;50.878;8.050;2022-07-15T11:22:51;4.78;;;0.70;;
35276;SDS011;21401;50.878;8.050;2022-07-15T11:25:40;5.40;;;0.70;;
35276;SDS011;21401;50.878;8.050;2022-07-15T11:28:06;2.60;;;0.60;;
35276;SDS011;21401;50.878;8.050;2022-07-15T11:30:41;2.63;;;0.65;;
35276;SDS011;21401;50.878;8.050;2022-07-15T11:33:19;2.72;;;0.77;;
35276;SDS011;21401;50.878;8.050;2022-07-15T11:38:27;2.72;;;0.70;;
35276;SDS011;21401;50.878;8.050;2022-07-15T11:40:56;4.88;;;1.15;;
35276;SDS011;21401;50.878;8.050;2022-07-15T11:43:44;1.90;;;0.90;;
35276;SDS011;21401;50.878;8.050;2022-07-15T11:46:42;1.88;;;0.80;;
35276;SDS011;21401;50.878;8.050;2022-07-15T11:49:09;3.92;;;1.77;;
35276;SDS011;21401;50.878;8.050;2022-07-15T11:51:49;3.60;;;1.08;;
35276;SDS011;21401;50.878;8.050;2022-07-15T11:54:17;3.05;;;0.70;;
35276;SDS011;21401;50.878;8.050;2022-07-15T11:56:43;4.22;;;0.98;;
35276;SDS011;21401;50.878;8.050;2022-07-15T11:59:19;3.28;;;1.02;;
35276;SDS011;21401;50.878;8.050;2022-07-15T12:01:47;7.50;;;1.27;;
35276;SDS011;21401;50.878;8.050;2022-07-15T12:04:14;3.10;;;0.95;;
35276;SDS011;21401;50.878;8.050;2022-07-15T12:06:39;3.15;;;0.88;;
35276;SDS011;21401;50.878;8.050;2022-07-15T12:09:05;6.45;;;0.85;;
35276;SDS011;21401;50.878;8.050;2022-07-15T12:11:34;4.90;;;1.05;;
35276;SDS011;21401;50.878;8.050;2022-07-15T12:19:07;3.25;;;0.90;;
35276;SDS011;21401;50.878;8.050;2022-07-15T12:21:37;2.88;;;0.90;;
35276;SDS011;21401;50.878;8.050;2022-07-15T12:24:05;3.13;;;0.90;;
35276;SDS011;21401;50.878;8.050;2022-07-15T12:26:34;3.00;;;0.60;;
35276;SDS011;21401;50.878;8.050;2022-07-15T12:29:04;3.58;;;0.80;;
35276;SDS011;21401;50.878;8.050;2022-07-15T12:31:32;2.92;;;1.00;;
35276;SDS011;21401;50.878;8.050;2022-07-15T12:33:58;3.60;;;1.42;;
35276;SDS011;21401;50.878;8.050;2022-07-15T12:36:26;2.00;;;0.65;;
35276;SDS011;21401;50.878;8.050;2022-07-15T12:39:07;2.55;;;0.68;;
35276;SDS011;21401;50.878;8.050;2022-07-15T12:41:36;4.03;;;0.93;;
35276;SDS011;21401;50.878;8.050;2022-07-15T12:44:03;2.97;;;0.80;;
35276;SDS011;21401;50.878;8.050;2022-07-15T12:54:45;4.63;;;0.73;;
35276;SDS011;21401;50.878;8.050;2022-07-15T13:02:54;6.05;;;1.25;;
35276;SDS011;21401;50.878;8.050;2022-07-15T13:05:45;5.07;;;1.08;;
35276;SDS011;21401;50.878;8.050;2022-07-15T13:08:13;5.25;;;1.10;;
35276;SDS011;21401;50.878;8.050;2022-07-15T13:10:41;5.15;;;0.90;;
35276;SDS011;21401;50.878;8.050;2022-07-15T13:13:08;6.55;;;1.10;;
35276;SDS011;21401;50.878;8.050;2022-07-15T13:15:37;2.08;;;0.75;;
35276;SDS011;21401;50.878;8.050;2022-07-15T13:18:02;2.10;;;0.60;;
35276;SDS011;21401;50.878;8.050;2022-07-15T13:20:31;3.10;;;0.80;;
35276;SDS011;21401;50.878;8.050;2022-07-15T13:22:57;3.17;;;0.85;;
35276;SDS011;21401;50.878;8.050;2022-07-15T13:25:27;3.63;;;0.90;;
35276;SDS011;21401;50.878;8.050;2022-07-15T13:27:54;3.95;;;0.95;;
35276;SDS011;21401;50.878;8.050;2022-07-15T13:30:23;4.30;;;1.00;;
35276;SDS011;21401;50.878;8.050;2022-07-15T13:32:49;2.30;;;0.88;;
35276;SDS011;21401;50.878;8.050;2022-07-15T13:35:15;9.57;;;2.20;;
35276;SDS011;21401;50.878;8.050;2022-07-15T13:37:41;3.63;;;1.10;;
35276;SDS011;21401;50.878;8.050;2022-07-15T13:40:08;3.75;;;1.08;;
35276;SDS011;21401;50.878;8.050;2022-07-15T13:42:35;2.83;;;1.00;;
35276;SDS011;21401;50.878;8.050;2022-07-15T13:45:00;5.50;;;0.93;;
35276;SDS011;21401;50.878;8.050;2022-07-15T13:47:27;10.07;;;0.90;;
35276;SDS011;21401;50.878;8.050;2022-07-15T13:49:53;5.97;;;1.17;;
35276;SDS011;21401;50.878;8.050;2022-07-15T13:52:44;36.80;;;3.33;;
35276;SDS011;21401;50.878;8.050;2022-07-15T13:55:11;5.82;;;0.85;;
35276;SDS011;21401;50.878;8.050;2022-07-15T13:57:37;5.28;;;1.13;;
35276;SDS011;21401;50.878;8.050;2022-07-15T14:00:04;5.93;;;0.98;;
35276;SDS011;21401;50.878;8.050;2022-07-15T14:02:34;2.55;;;0.90;;
35276;SDS011;21401;50.878;8.050;2022-07-15T14:05:02;4.68;;;1.27;;
35276;SDS011;21401;50.878;8.050;2022-07-15T14:07:28;3.20;;;0.90;;
35276;SDS011;21401;50.878;8.050;2022-07-15T14:09:54;4.75;;;0.88;;
35276;SDS011;21401;50.878;8.050;2022-07-15T14:12:19;2.83;;;0.93;;
35276;SDS011;21401;50.878;8.050;2022-07-15T14:14:45;3.60;;;1.00;;
35276;SDS011;21401;50.878;8.050;2022-07-15T14:17:10;5.88;;;1.77;;
35276;SDS011;21401;50.878;8.050;2022-07-15T14:19:38;3.75;;;1.35;;
35276;SDS011;21401;50.878;8.050;2022-07-15T14:22:04;3.40;;;1.05;;
35276;SDS011;21401;50.878;8.050;2022-07-15T14:24:32;2.35;;;0.82;;
35276;SDS011;21401;50.878;8.050;2022-07-15T14:26:57;4.10;;;0.98;;
35276;SDS011;21401;50.878;8.050;2022-07-15T14:29:23;5.28;;;1.80;;
35276;SDS011;21401;50.878;8.050;2022-07-15T14:31:48;3.42;;;1.05;;
35276;SDS011;21401;50.878;8.050;2022-07-15T14:34:14;2.45;;;0.70;;
35276;SDS011;21401;50.878;8.050;2022-07-15T14:36:40;6.15;;;0.90;;
35276;SDS011;21401;50.878;8.050;2022-07-15T14:39:06;6.25;;;0.98;;
35276;SDS011;21401;50.878;8.050;2022-07-15T14:41:32;3.55;;;0.75;;
35276;SDS011;21401;50.878;8.050;2022-07-15T14:43:58;4.10;;;0.88;;
35276;SDS011;21401;50.878;8.050;2022-07-15T14:46:24;3.38;;;0.75;;
35276;SDS011;21401;50.878;8.050;2022-07-15T14:48:49;7.18;;;0.98;;
35276;SDS011;21401;50.878;8.050;2022-07-15T14:51:21;4.03;;;1.08;;
35276;SDS011;21401;50.878;8.050;2022-07-15T14:53:47;2.65;;;0.80;;
35276;SDS011;21401;50.878;8.050;2022-07-15T14:56:32;5.00;;;0.80;;
35276;SDS011;21401;50.878;8.050;2022-07-15T14:58:58;3.38;;;0.88;;
35276;SDS011;21401;50.878;8.050;2022-07-15T15:01:23;4.88;;;1.25;;
35276;SDS011;21401;50.878;8.050;2022-07-15T15:03:56;2.80;;;0.80;;
35276;SDS011;21401;50.878;8.050;2022-07-15T15:06:33;3.08;;;0.70;;
35276;SDS011;21401;50.878;8.050;2022-07-15T15:08:59;3.70;;;0.90;;
35276;SDS011;21401;50.878;8.050;2022-07-15T15:11:24;3.75;;;0.82;;
35276;SDS011;21401;50.878;8.050;2022-07-15T15:13:50;2.42;;;1.35;;
35276;SDS011;21401;50.878;8.050;2022-07-15T15:16:16;3.78;;;0.80;;
35276;SDS011;21401;50.878;8.050;2022-07-15T15:18:42;5.18;;;1.65;;
35276;SDS011;21401;50.878;8.050;2022-07-15T15:21:07;2.00;;;0.73;;
35276;SDS011;21401;50.878;8.050;2022-07-15T15:23:33;3.35;;;0.93;;
35276;SDS011;21401;50.878;8.050;2022-07-15T15:25:59;6.68;;;0.80;;
35276;SDS011;21401;50.878;8.050;2022-07-15T15:28:43;4.53;;;1.33;;
35276;SDS011;21401;50.878;8.050;2022-07-15T15:31:11;2.78;;;1.00;;
35276;SDS011;21401;50.878;8.050;2022-07-15T15:33:37;5.75;;;1.20;;
35276;SDS011;21401;50.878;8.050;2022-07-15T15:36:03;3.58;;;1.10;;
35276;SDS011;21401;50.878;8.050;2022-07-15T15:38:31;7.53;;;1.55;;
35276;SDS011;21401;50.878;8.050;2022-07-15T15:40:56;4.43;;;1.10;;
35276;SDS011;21401;50.878;8.050;2022-07-15T15:43:22;3.85;;;1.20;;
35276;SDS011;21401;50.878;8.050;2022-07-15T15:45:48;12.23;;;1.63;;
35276;SDS011;21401;50.878;8.050;2022-07-15T15:48:14;4.85;;;1.10;;
35276;SDS011;21401;50.878;8.050;2022-07-15T15:50:39;8.70;;;1.90;;
35276;SDS011;21401;50.878;8.050;2022-07-15T15:53:05;4.30;;;1.35;;
35276;SDS011;21401;50.878;8.050;2022-07-15T15:55:31;4.35;;;1.17;;
35276;SDS011;21401;50.878;8.050;2022-07-15T15:57:59;2.45;;;0.90;;
35276;SDS011;21401;50.878;8.050;2022-07-15T16:00:24;3.50;;;0.93;;
35276;SDS011;21401;50.878;8.050;2022-07-15T16:02:50;4.97;;;1.00;;
35276;SDS011;21401;50.878;8.050;2022-07-15T16:05:18;3.30;;;1.00;;
35276;SDS011;21401;50.878;8.050;2022-07-15T16:07:44;5.07;;;0.80;;